createdAt,value
2022-09-23T00:01:20.420Z,3.30
2022-09-23T00:03:52.132Z,3.00
2022-09-23T00:06:24.456Z,3.30
2022-09-23T00:08:56.515Z,3.30
2022-09-23T00:11:29.225Z,3.00
2022-09-23T00:14:00.996Z,2.90
2022-09-23T00:16:35.014Z,3.17
2022-09-23T00:19:06.768Z,3.07
2022-09-23T00:21:38.477Z,3.00
2022-09-23T00:24:10.213Z,3.23
2022-09-23T00:26:42.582Z,2.70
2022-09-23T00:29:15.986Z,2.83
2022-09-23T00:31:47.912Z,3.13
2022-09-23T00:34:19.614Z,2.90
2022-09-23T00:36:51.382Z,9.07
2022-09-23T00:39:24.274Z,3.23
2022-09-23T00:41:56.047Z,3.10
2022-09-23T00:44:59.125Z,3.07
2022-09-23T00:47:48.120Z,3.23
2022-09-23T00:50:26.535Z,3.47
2022-09-23T00:53:00.236Z,3.37
2022-09-23T00:55:43.640Z,3.07
2022-09-23T00:58:18.772Z,3.10
2022-09-23T01:00:50.786Z,2.80
2022-09-23T01:03:22.902Z,2.97
2022-09-23T01:05:55.287Z,3.30
2022-09-23T01:08:27.944Z,3.60
2022-09-23T01:11:18.882Z,3.57
2022-09-23T01:14:16.658Z,3.03
2022-09-23T01:16:58.845Z,3.10
2022-09-23T01:19:36.479Z,3.30
2022-09-23T01:22:17.528Z,3.00
2022-09-23T01:24:58.004Z,3.10
2022-09-23T01:28:01.821Z,3.13
2022-09-23T01:30:48.476Z,3.20
2022-09-23T01:33:37.864Z,2.80
2022-09-23T01:36:15.517Z,2.77
2022-09-23T01:38:47.198Z,3.10
2022-09-23T01:41:37.855Z,3.13
2022-09-23T01:44:18.475Z,3.40
2022-09-23T01:47:02.123Z,2.90
2022-09-23T01:49:48.869Z,3.20
2022-09-23T01:52:44.508Z,3.13
2022-09-23T01:55:26.806Z,2.80
2022-09-23T01:58:13.358Z,3.00
2022-09-23T02:00:58.945Z,2.97
2022-09-23T02:03:59.552Z,3.40
2022-09-23T02:06:44.021Z,3.20
2022-09-23T02:09:18.668Z,2.70
2022-09-23T02:11:52.849Z,2.93
2022-09-23T02:14:38.584Z,2.87
2022-09-23T02:17:13.565Z,3.13
2022-09-23T02:19:56.928Z,3.60
2022-09-23T02:22:38.629Z,3.03
2022-09-23T02:25:12.437Z,3.03
2022-09-23T02:27:55.454Z,3.30
2022-09-23T02:30:31.577Z,3.17
2022-09-23T02:33:12.075Z,3.33
2022-09-23T02:35:53.836Z,2.90
2022-09-23T02:38:33.698Z,3.07
2022-09-23T02:41:23.484Z,3.00
2022-09-23T02:44:11.149Z,3.53
2022-09-23T02:46:43.829Z,3.37
2022-09-23T02:49:26.305Z,3.03
2022-09-23T02:52:04.759Z,3.43
2022-09-23T02:54:37.309Z,3.43
2022-09-23T02:57:09.997Z,3.20
2022-09-23T02:59:41.837Z,3.10
2022-09-23T03:02:21.584Z,3.33
2022-09-23T03:04:58.546Z,3.40
2022-09-23T03:07:40.771Z,3.10
2022-09-23T03:10:23.625Z,3.40
2022-09-23T03:13:14.697Z,3.63
2022-09-23T03:16:01.249Z,3.60
2022-09-23T03:18:50.236Z,3.73
2022-09-23T03:21:25.052Z,3.93
2022-09-23T03:24:01.531Z,4.00
2022-09-23T03:26:38.786Z,4.93
2022-09-23T03:29:13.040Z,4.53
2022-09-23T03:31:45.321Z,4.60
2022-09-23T03:34:25.072Z,4.90
2022-09-23T03:37:36.747Z,6.03
2022-09-23T03:40:14.410Z,5.23
2022-09-23T03:42:48.917Z,6.17
2022-09-23T03:45:26.124Z,4.50
2022-09-23T03:47:58.035Z,4.60
2022-09-23T03:50:30.126Z,4.43
2022-09-23T03:53:02.115Z,4.70
2022-09-23T03:55:34.791Z,3.93
2022-09-23T03:58:08.142Z,4.33
2022-09-23T04:00:39.935Z,3.60
2022-09-23T04:03:12.083Z,5.80
2022-09-23T04:05:45.235Z,3.90
2022-09-23T04:08:16.941Z,4.63
2022-09-23T04:10:52.875Z,4.10
2022-09-23T04:13:26.514Z,4.93
2022-09-23T04:15:58.444Z,6.00
2022-09-23T04:18:31.209Z,5.77
2022-09-23T04:21:03.070Z,5.40
2022-09-23T04:23:34.879Z,5.13
2022-09-23T04:26:07.004Z,4.67
2022-09-23T04:28:38.779Z,4.97
2022-09-23T04:31:10.694Z,4.50
2022-09-23T04:33:42.419Z,4.87
2022-09-23T04:36:14.131Z,4.87
2022-09-23T04:38:46.681Z,4.57
2022-09-23T04:41:19.929Z,5.07
2022-09-23T04:43:52.073Z,5.13
2022-09-23T04:46:24.215Z,6.20
2022-09-23T04:48:56.032Z,5.63
2022-09-23T04:51:28.315Z,5.07
2022-09-23T04:54:00.405Z,4.77
2022-09-23T04:56:34.807Z,4.60
2022-09-23T04:59:07.095Z,4.73
2022-09-23T05:01:39.243Z,4.73
2022-09-23T05:04:13.768Z,4.47
2022-09-23T05:06:45.553Z,4.20
2022-09-23T05:09:17.639Z,4.17
2022-09-23T05:11:49.355Z,4.60
2022-09-23T05:14:21.260Z,4.57
2022-09-23T05:16:52.980Z,4.40
2022-09-23T05:19:24.694Z,5.47
2022-09-23T05:21:56.638Z,4.00
2022-09-23T05:24:28.668Z,4.53
2022-09-23T05:27:00.886Z,4.47
2022-09-23T05:29:32.686Z,4.53
2022-09-23T05:32:04.563Z,4.97
2022-09-23T05:34:36.357Z,6.00
2022-09-23T05:37:08.162Z,6.90
2022-09-23T05:39:39.875Z,6.00
2022-09-23T05:42:12.400Z,4.53
2022-09-23T05:44:44.263Z,4.83
2022-09-23T05:47:16.036Z,4.40
2022-09-23T05:49:59.778Z,4.80
2022-09-23T05:52:34.776Z,4.63
2022-09-23T05:55:07.216Z,5.00
2022-09-23T05:57:38.978Z,4.50
2022-09-23T06:00:11.237Z,4.07
2022-09-23T06:02:48.643Z,7.17
2022-09-23T06:05:20.544Z,4.13
2022-09-23T06:07:52.238Z,3.60
2022-09-23T06:10:24.084Z,3.30
2022-09-23T06:12:55.859Z,4.10
2022-09-23T06:15:27.552Z,3.57
2022-09-23T06:17:59.912Z,3.70
2022-09-23T06:20:31.791Z,3.50
2022-09-23T06:23:11.393Z,4.33
2022-09-23T06:25:43.110Z,4.40
2022-09-23T06:28:14.963Z,3.60
2022-09-23T06:30:47.161Z,3.40
2022-09-23T06:33:31.949Z,3.17
2022-09-23T06:36:08.234Z,3.20
2022-09-23T06:38:44.700Z,3.77
2022-09-23T06:41:16.749Z,3.47
2022-09-23T06:43:48.542Z,3.87
2022-09-23T06:46:21.210Z,4.20
2022-09-23T06:48:53.006Z,4.60
2022-09-23T06:51:24.736Z,3.97
2022-09-23T06:53:56.421Z,6.23
2022-09-23T06:56:28.167Z,6.10
2022-09-23T06:58:59.987Z,7.00
2022-09-23T07:01:31.859Z,5.83
2022-09-23T07:04:03.849Z,5.53
2022-09-23T07:06:35.756Z,6.10
2022-09-23T07:09:08.564Z,4.67
2022-09-23T07:11:40.349Z,4.60
2022-09-23T07:14:12.057Z,5.03
2022-09-23T07:16:43.773Z,4.27
2022-09-23T07:19:15.504Z,4.13
2022-09-23T07:21:47.250Z,4.60
2022-09-23T07:24:19.003Z,4.77
2022-09-23T07:26:50.707Z,12.50
2022-09-23T07:29:22.661Z,8.77
2022-09-23T07:32:00.610Z,4.83
2022-09-23T07:34:38.388Z,4.80
2022-09-23T07:37:10.641Z,4.00
2022-09-23T07:39:43.719Z,3.70
2022-09-23T07:42:15.712Z,4.10
2022-09-23T07:44:47.744Z,3.90
2022-09-23T07:47:19.791Z,3.50
2022-09-23T07:49:54.176Z,3.60
2022-09-23T07:52:25.913Z,3.67
2022-09-23T07:54:57.620Z,3.60
2022-09-23T07:57:29.304Z,4.23
2022-09-23T08:00:01.163Z,3.50
2022-09-23T08:02:32.867Z,3.40
2022-09-23T08:05:05.772Z,3.27
2022-09-23T08:07:37.629Z,3.53
2022-09-23T08:10:09.757Z,3.40
2022-09-23T08:12:41.445Z,3.60
2022-09-23T08:15:13.235Z,3.70
2022-09-23T08:17:44.936Z,3.43
2022-09-23T08:20:36.716Z,3.77
2022-09-23T08:23:08.405Z,3.90
2022-09-23T08:25:42.106Z,3.47
2022-09-23T08:28:18.343Z,3.20
2022-09-23T08:30:50.286Z,3.40
2022-09-23T08:33:23.824Z,3.83
2022-09-23T08:36:00.754Z,3.90
2022-09-23T08:38:32.960Z,3.33
2022-09-23T08:41:38.561Z,3.40
2022-09-23T08:44:19.355Z,3.93
2022-09-23T08:47:00.045Z,3.67
2022-09-23T08:49:53.765Z,3.07
2022-09-23T08:52:39.455Z,2.80
2022-09-23T08:55:14.839Z,2.60
2022-09-23T08:58:25.563Z,2.60
2022-09-23T09:01:25.500Z,2.97
2022-09-23T09:04:14.766Z,2.80
2022-09-23T09:07:34.844Z,2.70
2022-09-23T09:10:03.798Z,2.83
2022-09-23T09:12:46.504Z,2.90
2022-09-23T09:15:27.315Z,2.10
2022-09-23T09:18:20.830Z,2.00
2022-09-23T09:21:12.583Z,2.00
2022-09-23T09:23:57.116Z,1.93
2022-09-23T09:26:35.599Z,1.70
2022-09-23T09:29:35.424Z,2.53
2022-09-23T09:32:35.895Z,1.80
2022-09-23T09:35:35.078Z,2.70
2022-09-23T09:38:07.404Z,2.10
2022-09-23T09:40:46.148Z,1.73
2022-09-23T09:43:23.160Z,2.30
2022-09-23T09:46:04.073Z,1.87
2022-09-23T09:48:50.718Z,1.50
2022-09-23T09:51:27.758Z,3.23
2022-09-23T09:54:23.120Z,1.67
2022-09-23T09:56:55.147Z,1.97
2022-09-23T09:59:28.712Z,3.43
2022-09-23T10:02:24.202Z,2.17
2022-09-23T10:05:07.221Z,1.77
2022-09-23T10:07:39.119Z,1.90
2022-09-23T10:10:33.279Z,1.93
2022-09-23T10:13:16.126Z,1.93
2022-09-23T10:15:48.317Z,2.30
2022-09-23T10:18:36.913Z,1.60
2022-09-23T10:21:14.421Z,2.03
2022-09-23T10:23:52.613Z,2.53
2022-09-23T10:26:32.145Z,3.50
2022-09-23T10:29:23.466Z,1.87
2022-09-23T10:32:36.285Z,2.00
2022-09-23T10:35:13.337Z,1.70
2022-09-23T10:38:00.582Z,1.73
2022-09-23T10:40:59.352Z,1.60
2022-09-23T10:44:20.828Z,1.80
2022-09-23T10:47:05.359Z,1.93
2022-09-23T10:50:10.894Z,3.20
2022-09-23T10:52:42.561Z,1.33
2022-09-23T10:55:19.912Z,1.53
2022-09-23T10:57:54.375Z,1.80
2022-09-23T11:00:43.865Z,1.40
2022-09-23T11:04:06.665Z,1.70
2022-09-23T11:07:18.122Z,2.10
2022-09-23T11:10:28.993Z,2.13
2022-09-23T11:13:33.689Z,2.13
2022-09-23T11:16:38.988Z,2.10
2022-09-23T11:19:49.029Z,1.70
2022-09-23T11:22:50.636Z,1.73
2022-09-23T11:25:34.620Z,1.30
2022-09-23T11:28:34.036Z,1.70
2022-09-23T11:31:34.677Z,1.70
2022-09-23T11:34:12.089Z,1.50
2022-09-23T11:36:50.532Z,1.67
2022-09-23T11:39:40.184Z,1.97
2022-09-23T11:42:23.211Z,1.60
2022-09-23T11:45:01.070Z,1.87
2022-09-23T11:47:50.176Z,1.63
2022-09-23T11:50:44.235Z,1.60
2022-09-23T11:53:20.461Z,1.87
2022-09-23T11:56:07.597Z,1.40
2022-09-23T11:59:01.827Z,1.40
2022-09-23T12:01:45.560Z,1.67
2022-09-23T12:04:21.397Z,1.37
2022-09-23T12:07:03.603Z,1.80
2022-09-23T12:09:57.842Z,1.37
2022-09-23T12:12:36.526Z,1.80
2022-09-23T12:15:37.477Z,1.97
2022-09-23T12:18:31.052Z,1.60
2022-09-23T12:21:49.387Z,1.90
2022-09-23T12:24:27.984Z,1.60
2022-09-23T12:27:07.012Z,1.90
2022-09-23T12:29:41.233Z,1.70
2022-09-23T12:32:19.727Z,1.50
2022-09-23T12:34:53.123Z,1.63
2022-09-23T12:37:34.344Z,1.60
2022-09-23T12:40:31.098Z,1.70
2022-09-23T12:43:02.985Z,2.17
2022-09-23T12:45:39.332Z,1.80
2022-09-23T12:48:17.145Z,2.10
2022-09-23T12:50:53.411Z,1.30
2022-09-23T12:53:34.196Z,1.50
2022-09-23T12:56:18.541Z,2.07
2022-09-23T12:58:50.873Z,1.70
2022-09-23T13:01:25.081Z,1.77
2022-09-23T13:04:17.398Z,2.83
2022-09-23T13:07:06.356Z,1.53
2022-09-23T13:09:42.250Z,2.57
2022-09-23T13:12:38.857Z,1.80
2022-09-23T13:15:29.804Z,1.60
2022-09-23T13:18:24.204Z,1.30
2022-09-23T13:20:56.860Z,2.20
2022-09-23T13:23:32.949Z,1.53
2022-09-23T13:26:12.612Z,1.70
2022-09-23T13:28:58.393Z,1.40
2022-09-23T13:31:30.374Z,2.27
2022-09-23T13:34:07.799Z,1.43
2022-09-23T13:36:47.811Z,1.60
2022-09-23T13:39:28.949Z,1.77
2022-09-23T13:42:04.192Z,1.60
2022-09-23T13:44:36.002Z,1.50
2022-09-23T13:47:13.472Z,1.30
2022-09-23T13:49:47.969Z,1.60
2022-09-23T13:52:37.948Z,1.50
2022-09-23T13:55:25.057Z,1.47
2022-09-23T13:58:05.735Z,1.80
2022-09-23T14:00:38.556Z,1.97
2022-09-23T14:03:35.355Z,1.70
2022-09-23T14:06:17.316Z,1.47
2022-09-23T14:08:50.713Z,1.70
2022-09-23T14:11:30.493Z,2.90
2022-09-23T14:14:07.599Z,1.37
2022-09-23T14:16:41.539Z,2.53
2022-09-23T14:19:17.599Z,2.00
2022-09-23T14:21:51.374Z,1.20
2022-09-23T14:24:35.036Z,1.60
2022-09-23T14:27:06.701Z,1.40
2022-09-23T14:29:41.212Z,1.20
2022-09-23T14:32:17.757Z,1.37
2022-09-23T14:35:04.596Z,2.33
2022-09-23T14:37:55.122Z,3.97
2022-09-23T14:40:34.188Z,2.93
2022-09-23T14:43:16.917Z,1.50
2022-09-23T14:45:52.885Z,1.30
2022-09-23T14:48:30.195Z,1.50
2022-09-23T14:51:05.943Z,1.40
2022-09-23T14:53:42.991Z,2.23
2022-09-23T14:56:20.431Z,1.47
2022-09-23T14:58:59.497Z,1.20
2022-09-23T15:01:31.358Z,1.50
2022-09-23T15:04:13.838Z,1.20
2022-09-23T15:06:50.523Z,1.20
2022-09-23T15:09:28.860Z,1.23
2022-09-23T15:12:05.266Z,1.30
2022-09-23T15:14:41.219Z,1.20
2022-09-23T15:17:25.169Z,1.30
2022-09-23T15:20:03.947Z,1.40
2022-09-23T15:22:46.249Z,1.30
2022-09-23T15:25:28.259Z,5.27
2022-09-23T15:28:12.349Z,1.57
2022-09-23T15:30:44.089Z,1.40
2022-09-23T15:33:16.183Z,7.07
2022-09-23T15:35:48.825Z,1.17
2022-09-23T15:38:21.993Z,1.10
2022-09-23T15:40:54.256Z,2.30
2022-09-23T15:43:26.872Z,4.23
2022-09-23T15:46:05.178Z,1.60
2022-09-23T15:48:42.421Z,1.87
2022-09-23T15:51:15.320Z,1.57
2022-09-23T15:53:47.895Z,1.23
2022-09-23T15:56:19.618Z,2.27
2022-09-23T15:58:51.449Z,3.13
2022-09-23T16:01:30.284Z,8.10
2022-09-23T16:04:04.302Z,1.70
2022-09-23T16:06:36.427Z,5.53
2022-09-23T16:09:08.274Z,2.20
2022-09-23T16:11:44.510Z,1.57
2022-09-23T16:14:19.147Z,5.20
2022-09-23T16:16:50.901Z,3.30
2022-09-23T16:19:22.675Z,1.30
2022-09-23T16:21:54.429Z,1.10
2022-09-23T16:24:28.323Z,1.40
2022-09-23T16:27:04.514Z,1.20
2022-09-23T16:29:36.223Z,1.47
2022-09-23T16:32:08.080Z,1.30
2022-09-23T16:34:39.869Z,1.33
2022-09-23T16:37:18.536Z,1.60
2022-09-23T16:39:50.529Z,1.63
2022-09-23T16:42:23.095Z,2.40
2022-09-23T16:44:54.889Z,2.93
2022-09-23T16:47:26.657Z,7.87
2022-09-23T16:49:58.412Z,3.00
2022-09-23T16:52:31.086Z,1.80
2022-09-23T16:55:02.982Z,1.90
2022-09-23T16:57:39.077Z,1.60
2022-09-23T17:00:34.237Z,1.87
2022-09-23T17:03:24.905Z,1.47
2022-09-23T17:05:56.868Z,1.60
2022-09-23T17:08:28.737Z,1.70
2022-09-23T17:11:00.997Z,1.97
2022-09-23T17:13:33.104Z,1.87
2022-09-23T17:16:05.106Z,1.97
2022-09-23T17:18:38.802Z,1.80
2022-09-23T17:21:10.553Z,1.70
2022-09-23T17:23:42.367Z,2.30
2022-09-23T17:26:15.069Z,1.70
2022-09-23T17:28:46.763Z,2.07
2022-09-23T17:31:18.723Z,1.80
2022-09-23T17:33:51.583Z,2.50
2022-09-23T17:36:23.365Z,2.77
2022-09-23T17:38:55.873Z,2.20
2022-09-23T17:41:28.150Z,2.70
2022-09-23T17:44:00.591Z,3.93
2022-09-23T17:46:32.467Z,4.20
2022-09-23T17:49:06.611Z,4.67
2022-09-23T17:51:38.812Z,5.00
2022-09-23T17:54:11.037Z,4.90
2022-09-23T17:56:42.913Z,5.13
2022-09-23T17:59:14.652Z,5.10
2022-09-23T18:01:46.521Z,5.20
2022-09-23T18:04:18.413Z,5.30
2022-09-23T18:06:50.949Z,5.50
2022-09-23T18:09:23.055Z,6.43
2022-09-23T18:11:54.936Z,6.10
2022-09-23T18:14:26.690Z,5.97
2022-09-23T18:16:58.493Z,4.80
2022-09-23T18:19:30.456Z,5.57
2022-09-23T18:22:02.889Z,6.03
2022-09-23T18:24:37.885Z,6.60
2022-09-23T18:27:09.675Z,6.87
2022-09-23T18:29:41.430Z,6.13
2022-09-23T18:32:14.401Z,6.40
2022-09-23T18:34:46.285Z,6.27
2022-09-23T18:37:17.989Z,6.83
2022-09-23T18:39:50.030Z,6.63
2022-09-23T18:42:22.159Z,5.87
2022-09-23T18:44:58.369Z,5.53
2022-09-23T18:47:48.861Z,5.57
2022-09-23T18:50:39.300Z,5.27
2022-09-23T18:53:11.184Z,5.43
2022-09-23T18:55:42.892Z,5.70
2022-09-23T18:58:14.624Z,5.63
2022-09-23T19:00:47.833Z,5.63
2022-09-23T19:03:19.654Z,7.67
2022-09-23T19:05:51.369Z,8.50
2022-09-23T19:08:23.977Z,9.10
2022-09-23T19:11:02.706Z,7.37
2022-09-23T19:13:35.436Z,7.83
2022-09-23T19:16:15.763Z,6.90
2022-09-23T19:18:47.594Z,7.10
2022-09-23T19:21:21.391Z,7.43
2022-09-23T19:23:55.656Z,6.90
2022-09-23T19:26:31.150Z,5.60
2022-09-23T19:29:04.370Z,6.50
2022-09-23T19:31:40.415Z,5.90
2022-09-23T19:34:14.978Z,4.60
2022-09-23T19:36:47.746Z,4.63
2022-09-23T19:39:24.385Z,4.67
2022-09-23T19:41:56.557Z,4.90
2022-09-23T19:44:28.515Z,4.40
2022-09-23T19:47:00.374Z,5.13
2022-09-23T19:49:32.314Z,4.20
2022-09-23T19:52:03.989Z,4.50
2022-09-23T19:54:35.793Z,5.30
2022-09-23T19:57:08.970Z,5.90
2022-09-23T19:59:40.929Z,6.13
2022-09-23T20:02:12.797Z,9.07
2022-09-23T20:04:44.605Z,7.80
2022-09-23T20:07:16.310Z,5.00
2022-09-23T20:09:48.017Z,4.93
2022-09-23T20:12:20.075Z,6.30
2022-09-23T20:14:51.951Z,4.73
2022-09-23T20:17:23.795Z,5.37
2022-09-23T20:19:55.497Z,8.23
2022-09-23T20:22:33.586Z,9.73
2022-09-23T20:25:07.279Z,10.47
2022-09-23T20:27:39.721Z,10.80
2022-09-23T20:30:11.918Z,11.13
2022-09-23T20:32:44.909Z,11.93
2022-09-23T20:35:17.070Z,10.00
2022-09-23T20:37:48.748Z,9.93
2022-09-23T20:40:23.071Z,11.30
2022-09-23T20:42:54.804Z,10.37
2022-09-23T20:45:26.543Z,9.17
2022-09-23T20:48:00.125Z,7.87
2022-09-23T20:50:31.964Z,7.30
2022-09-23T20:53:03.808Z,8.13
2022-09-23T20:55:35.509Z,6.50
2022-09-23T20:58:07.222Z,6.93
2022-09-23T21:00:39.083Z,6.73
2022-09-23T21:03:14.382Z,7.40
2022-09-23T21:05:46.152Z,6.37
2022-09-23T21:08:18.173Z,5.60
2022-09-23T21:10:57.334Z,5.90
2022-09-23T21:13:30.383Z,6.40
2022-09-23T21:16:03.393Z,5.93
2022-09-23T21:18:35.616Z,5.80
2022-09-23T21:21:07.563Z,5.40
2022-09-23T21:23:40.558Z,5.60
2022-09-23T21:26:19.195Z,5.80
2022-09-23T21:28:57.564Z,7.73
2022-09-23T21:31:38.561Z,7.90
2022-09-23T21:34:12.452Z,7.33
2022-09-23T21:36:44.279Z,6.80
2022-09-23T21:39:16.051Z,7.13
2022-09-23T21:41:47.769Z,7.83
2022-09-23T21:44:19.572Z,7.73
2022-09-23T21:46:51.335Z,7.57
2022-09-23T21:49:23.471Z,7.60
2022-09-23T21:51:58.873Z,6.80
2022-09-23T21:54:31.741Z,6.53
2022-09-23T21:57:03.751Z,6.20
2022-09-23T21:59:35.453Z,6.10
2022-09-23T22:02:07.302Z,5.83
2022-09-23T22:04:39.084Z,5.50
2022-09-23T22:07:10.831Z,5.70
2022-09-23T22:09:42.578Z,5.90
2022-09-23T22:12:14.266Z,6.17
2022-09-23T22:14:47.128Z,6.13
2022-09-23T22:17:19.384Z,6.37
2022-09-23T22:19:51.210Z,5.83
2022-09-23T22:22:22.882Z,6.30
2022-09-23T22:24:54.608Z,6.17
2022-09-23T22:27:27.277Z,5.87
2022-09-23T22:30:17.582Z,5.73
2022-09-23T22:32:54.399Z,5.90
2022-09-23T22:35:26.728Z,5.80
2022-09-23T22:38:00.943Z,6.20
2022-09-23T22:40:32.800Z,5.60
2022-09-23T22:43:04.846Z,5.57
2022-09-23T22:45:37.740Z,6.80
2022-09-23T22:48:09.471Z,6.57
2022-09-23T22:50:41.291Z,6.00
2022-09-23T22:53:13.937Z,8.10
2022-09-23T22:55:45.681Z,6.17
2022-09-23T22:58:31.652Z,6.37
2022-09-23T23:01:05.427Z,6.23
2022-09-23T23:03:37.785Z,6.17
2022-09-23T23:06:10.184Z,5.97
2022-09-23T23:08:41.862Z,5.23
2022-09-23T23:11:13.564Z,6.40
2022-09-23T23:13:45.247Z,6.67
2022-09-23T23:16:17.085Z,6.40
2022-09-23T23:18:48.873Z,5.77
2022-09-23T23:21:21.402Z,6.43
2022-09-23T23:23:53.617Z,5.50
2022-09-23T23:26:27.576Z,5.50
2022-09-23T23:29:00.602Z,5.53
2022-09-23T23:31:33.190Z,5.10
2022-09-23T23:34:07.220Z,5.37
2022-09-23T23:36:39.925Z,5.50
2022-09-23T23:39:13.061Z,5.43
2022-09-23T23:41:45.334Z,5.37
2022-09-23T23:44:17.031Z,4.83
2022-09-23T23:46:49.302Z,4.63
2022-09-23T23:49:21.578Z,5.00
2022-09-23T23:51:53.665Z,4.80
2022-09-23T23:54:25.431Z,4.73
2022-09-23T23:56:57.121Z,4.77
2022-09-23T23:59:28.829Z,5.00
